Time;durP1;ratioP1;P1;durP2;ratioP2;P2;SDS_P1;SDS_P2;PMS_P1;PMS_P2;Temp;Humidity;BMP_temperature;BMP_pressure;BME280_temperature;BME280_humidity;BME280_pressure;Samples;Min_cycle;Max_cycle;Signal;HPM_P1;HPM_P2
2023/11/09 00:02:24;;;;;;;14.87;4.93;;;;;;;4.40;100.00;100638.56;1432756;91;21458;-80
2023/11/09 00:04:51;;;;;;;12.40;5.20;;;;;;;4.39;100.00;100640.80;1418666;91;21465;-79
2023/11/09 00:07:19;;;;;;;8.80;4.87;;;;;;;4.39;100.00;100636.86;1434561;91;21348;-79
2023/11/09 00:09:46;;;;;;;12.73;6.10;;;;;;;4.39;100.00;100637.34;1428240;90;21392;-79
2023/11/09 00:12:12;;;;;;;9.37;5.30;;;;;;;4.38;100.00;100640.44;1426629;91;21466;-79
2023/11/09 00:14:38;;;;;;;12.17;5.97;;;;;;;4.35;100.00;100636.71;1434480;91;21480;-79
2023/11/09 00:17:05;;;;;;;9.60;4.53;;;;;;;4.29;100.00;100636.65;1436701;90;21547;-79
2023/11/09 00:19:31;;;;;;;17.73;6.37;;;;;;;4.25;100.00;100638.25;1426186;91;21377;-78
2023/11/09 00:21:57;;;;;;;12.83;4.83;;;;;;;4.21;100.00;100632.86;1430350;90;21540;-78
2023/11/09 00:24:24;;;;;;;12.97;5.13;;;;;;;4.19;100.00;100639.97;1432155;91;22279;-78
2023/11/09 00:26:51;;;;;;;12.27;5.53;;;;;;;4.16;100.00;100641.48;1435346;90;21406;-77
2023/11/09 00:29:18;;;;;;;10.57;4.57;;;;;;;4.18;100.00;100640.92;1433903;90;21399;-77
2023/11/09 00:31:44;;;;;;;7.30;3.93;;;;;;;4.19;100.00;100645.21;1436125;90;21392;-78
2023/11/09 00:34:10;;;;;;;7.77;4.10;;;;;;;4.18;100.00;100637.00;1433314;91;21407;-78
2023/11/09 00:36:36;;;;;;;8.47;5.13;;;;;;;4.17;100.00;100636.61;1435149;91;21621;-79
2023/11/09 00:39:04;;;;;;;10.03;4.20;;;;;;;4.14;100.00;100632.88;1435488;90;21561;-78
2023/11/09 00:41:30;;;;;;;6.73;4.13;;;;;;;4.10;100.00;100636.18;1437648;90;21274;-76
2023/11/09 00:43:57;;;;;;;9.80;4.40;;;;;;;4.05;100.00;100639.09;1429695;91;21554;-77
2023/11/09 00:46:23;;;;;;;8.63;4.10;;;;;;;4.02;100.00;100635.36;1429309;91;21528;-76
2023/11/09 00:48:49;;;;;;;8.17;4.20;;;;;;;4.02;100.00;100634.05;1440016;91;21406;-77
2023/11/09 00:51:17;;;;;;;8.20;4.47;;;;;;;4.02;100.00;100637.15;1437461;91;22479;-77
2023/11/09 00:53:43;;;;;;;6.97;3.90;;;;;;;4.02;100.00;100639.29;1432918;90;21533;-79
2023/11/09 00:56:10;;;;;;;6.43;3.83;;;;;;;4.00;100.00;100645.12;1417590;91;21428;-77
2023/11/09 00:58:37;;;;;;;8.33;3.97;;;;;;;3.99;100.00;100649.97;1437863;91;21555;-76
2023/11/09 01:01:03;;;;;;;9.73;4.20;;;;;;;3.95;100.00;100649.81;1434448;91;21488;-78
2023/11/09 01:03:29;;;;;;;11.70;3.60;;;;;;;3.93;100.00;100647.75;1422961;91;21465;-78
2023/11/09 01:06:00;;;;;;;6.40;4.00;;;;;;;3.90;100.00;100642.72;1426630;91;22164;-78
2023/11/09 01:08:25;;;;;;;9.23;3.70;;;;;;;3.89;100.00;100641.05;1434187;91;21399;-79
2023/11/09 01:10:51;;;;;;;6.57;3.73;;;;;;;3.90;100.00;100638.79;1435768;90;22286;-77
2023/11/09 01:13:18;;;;;;;8.67;4.00;;;;;;;3.93;100.00;100646.45;1433327;91;22273;-78
2023/11/09 01:15:44;;;;;;;5.63;3.00;;;;;;;3.96;100.00;100637.08;1423452;90;21414;-77
2023/11/09 01:18:11;;;;;;;7.73;3.93;;;;;;;4.01;100.00;100637.63;1427842;91;21577;-77
2023/11/09 01:20:38;;;;;;;8.07;4.33;;;;;;;4.06;100.00;100633.41;1416315;91;21400;-77
2023/11/09 01:23:07;;;;;;;9.23;3.80;;;;;;;4.09;100.00;100638.92;1436429;90;21518;-77
2023/11/09 01:25:33;;;;;;;8.57;3.63;;;;;;;4.10;100.00;100632.73;1436986;91;21532;-77
2023/11/09 01:28:01;;;;;;;5.90;3.77;;;;;;;4.07;100.00;100633.29;1418280;91;22347;-78
2023/11/09 01:30:27;;;;;;;7.37;3.70;;;;;;;4.04;100.00;100628.25;1442367;90;21384;-78
2023/11/09 01:32:53;;;;;;;9.10;3.77;;;;;;;4.02;100.00;100626.67;1419547;91;21599;-77
2023/11/09 01:35:19;;;;;;;8.47;3.87;;;;;;;4.00;100.00;100634.64;1438614;91;21488;-77
2023/11/09 01:37:45;;;;;;;8.47;3.07;;;;;;;3.97;100.00;100629.61;1437444;91;21665;-77
2023/11/09 01:40:12;;;;;;;6.30;4.47;;;;;;;3.98;100.00;100637.83;1434767;91;22286;-78
2023/11/09 01:42:43;;;;;;;7.00;4.00;;;;;;;3.96;100.00;100634.46;1432173;91;21304;-77
2023/11/09 01:45:10;;;;;;;5.97;3.73;;;;;;;3.93;100.00;100639.90;1431581;90;21524;-77
2023/11/09 01:47:37;;;;;;;11.30;4.50;;;;;;;3.89;100.00;100641.52;1441618;90;21607;-77
2023/11/09 01:50:05;;;;;;;9.10;4.83;;;;;;;3.86;100.00;100646.48;1434380;91;21429;-79
2023/11/09 01:52:33;;;;;;;9.70;3.50;;;;;;;3.81;100.00;100645.94;1430887;91;21451;-77
2023/11/09 01:55:01;;;;;;;7.37;4.07;;;;;;;3.77;100.00;100648.36;1438369;91;21474;-77
2023/11/09 01:57:30;;;;;;;7.73;3.27;;;;;;;3.74;100.00;100644.63;1438741;91;21376;-78
2023/11/09 01:59:57;;;;;;;6.33;3.50;;;;;;;3.72;100.00;100638.68;1433709;90;21928;-78
2023/11/09 02:02:25;;;;;;;4.87;2.93;;;;;;;3.73;100.00;100640.34;1442375;91;22190;-77
2023/11/09 02:04:53;;;;;;;6.83;3.50;;;;;;;3.72;100.00;100636.06;1433905;90;21466;-77
2023/11/09 02:07:20;;;;;;;7.57;3.80;;;;;;;3.69;100.00;100649.35;1437574;90;22377;-76
2023/11/09 02:09:50;;;;;;;6.93;3.80;;;;;;;3.63;100.00;100642.73;1440725;91;21318;-77
2023/11/09 02:12:17;;;;;;;6.28;3.65;;;;;;;3.60;100.00;100642.92;1437968;91;21973;-77
2023/11/09 02:14:43;;;;;;;5.87;3.60;;;;;;;3.58;100.00;100640.39;1437601;91;21363;-77
2023/11/09 02:17:11;;;;;;;7.63;3.60;;;;;;;3.57;100.00;100638.72;1423219;91;21524;-77
2023/11/09 02:19:37;;;;;;;5.27;3.60;;;;;;;3.55;100.00;100647.60;1433411;90;21441;-77
2023/11/09 02:22:04;;;;;;;8.10;2.73;;;;;;;3.52;100.00;100645.19;1418300;91;21392;-77
2023/11/09 02:24:32;;;;;;;6.80;4.03;;;;;;;3.54;100.00;100645.91;1433694;91;21399;-77
2023/11/09 02:27:01;;;;;;;9.07;3.73;;;;;;;3.54;100.00;100645.91;1434303;90;21624;-79
2023/11/09 02:29:27;;;;;;;14.93;4.57;;;;;;;3.55;100.00;100654.98;1429561;91;21406;-78
2023/11/09 02:31:53;;;;;;;8.30;3.30;;;;;;;3.56;100.00;100651.89;1438582;91;21547;-78
2023/11/09 02:34:25;;;;;;;6.07;3.57;;;;;;;3.56;100.00;100654.51;1421192;91;22167;-80
2023/11/09 02:36:52;;;;;;;5.47;3.10;;;;;;;3.57;100.00;100650.50;1422782;91;21631;-80
2023/11/09 02:39:18;;;;;;;8.70;3.37;;;;;;;3.59;100.00;100653.84;1432136;91;21391;-80
2023/11/09 02:41:44;;;;;;;6.77;3.20;;;;;;;3.61;100.00;100646.73;1437353;91;21525;-80
2023/11/09 02:44:11;;;;;;;4.67;3.37;;;;;;;3.61;100.00;100646.73;1436303;91;21485;-79
2023/11/09 02:46:37;;;;;;;5.80;2.87;;;;;;;3.69;100.00;100654.59;1435747;91;21333;-80
2023/11/09 02:49:03;;;;;;;8.20;4.07;;;;;;;3.73;100.00;100653.44;1418645;91;21620;-79
2023/11/09 02:51:29;;;;;;;4.57;3.33;;;;;;;3.75;100.00;100654.19;1433871;91;22391;-78
2023/11/09 02:53:55;;;;;;;7.50;3.53;;;;;;;3.73;100.00;100661.30;1432840;91;21540;-80
2023/11/09 02:56:22;;;;;;;5.90;4.37;;;;;;;3.70;100.00;100662.80;1412746;91;21370;-79
2023/11/09 02:58:48;;;;;;;7.87;3.90;;;;;;;3.65;100.00;100664.86;1437234;91;21566;-78
2023/11/09 03:01:14;;;;;;;6.67;3.20;;;;;;;3.60;100.00;100666.48;1429699;91;21465;-77
2023/11/09 03:03:40;;;;;;;14.27;4.00;;;;;;;3.54;100.00;100662.47;1432066;91;22545;-78
2023/11/09 03:06:07;;;;;;;11.27;4.43;;;;;;;3.51;100.00;100667.91;1425358;91;21340;-78
2023/11/09 03:08:34;;;;;;;8.13;4.40;;;;;;;3.49;100.00;100665.01;1407972;91;21565;-78
2023/11/09 03:11:00;;;;;;;6.87;3.13;;;;;;;3.50;100.00;100667.51;1434364;91;21363;-78
2023/11/09 03:13:27;;;;;;;9.00;3.60;;;;;;;3.49;100.00;100667.63;1435526;91;22449;-78
2023/11/09 03:15:53;;;;;;;10.70;3.27;;;;;;;3.48;100.00;100675.08;1438450;90;21407;-79
2023/11/09 03:18:21;;;;;;;6.67;4.10;;;;;;;3.46;100.00;100668.66;1431612;91;21650;-79
2023/11/09 03:20:48;;;;;;;8.37;3.93;;;;;;;3.43;100.00;100671.46;1434700;91;22353;-79
2023/11/09 03:23:14;;;;;;;10.17;4.70;;;;;;;3.40;100.00;100667.73;1440178;91;22337;-79
2023/11/09 03:25:40;;;;;;;7.90;3.87;;;;;;;3.35;100.00;100664.55;1431892;91;22316;-79
2023/11/09 03:28:06;;;;;;;8.47;4.23;;;;;;;3.33;100.00;100669.86;1416662;91;21903;-79
2023/11/09 03:30:35;;;;;;;6.30;3.13;;;;;;;3.31;100.00;100665.66;1435992;90;21355;-79
2023/11/09 03:33:01;;;;;;;7.37;3.20;;;;;;;3.30;100.00;100669.22;1442444;91;22501;-79
2023/11/09 03:35:28;;;;;;;6.70;3.90;;;;;;;3.30;100.00;100667.91;1436544;90;21325;-79
2023/11/09 03:37:54;;;;;;;6.80;4.17;;;;;;;3.29;100.00;100666.25;1431325;91;21540;-79
2023/11/09 03:40:20;;;;;;;9.87;4.77;;;;;;;3.28;100.00;100668.47;1418686;91;21633;-79
2023/11/09 03:42:47;;;;;;;11.57;4.90;;;;;;;3.24;100.00;100664.37;1421441;91;21591;-77
2023/11/09 03:45:13;;;;;;;9.27;5.37;;;;;;;3.23;100.00;100665.32;1422955;91;21480;-77
2023/11/09 03:47:40;;;;;;;9.83;4.73;;;;;;;3.21;100.00;100665.88;1430661;90;21518;-78
2023/11/09 03:50:07;;;;;;;12.43;4.53;;;;;;;3.21;100.00;100668.02;1438037;91;21451;-78
2023/11/09 03:52:33;;;;;;;7.63;4.00;;;;;;;3.22;100.00;100661.00;1439340;90;21414;-79
2023/11/09 03:54:59;;;;;;;11.20;5.37;;;;;;;3.22;100.00;100663.63;1426786;91;22087;-79
2023/11/09 03:57:27;;;;;;;9.07;4.87;;;;;;;3.18;100.00;100654.30;1430267;91;21464;-78
2023/11/09 03:59:53;;;;;;;6.67;3.90;;;;;;;3.26;100.00;100665.13;1438477;91;21582;-78
2023/11/09 04:02:20;;;;;;;8.93;5.07;;;;;;;3.26;100.00;100672.98;1433539;90;21356;-77
2023/11/09 04:04:46;;;;;;;10.10;5.10;;;;;;;3.28;100.00;100668.03;1434795;91;21529;-78
2023/11/09 04:07:14;;;;;;;10.33;5.50;;;;;;;3.28;100.00;100668.03;1437126;91;21421;-78
2023/11/09 04:09:41;;;;;;;14.63;6.50;;;;;;;3.27;100.00;100670.72;1434778;91;22100;-78
2023/11/09 04:12:11;;;;;;;14.17;6.93;;;;;;;3.26;100.00;100663.34;1437699;91;21451;-77
2023/11/09 04:14:37;;;;;;;14.10;7.62;;;;;;;3.26;100.00;100667.75;1433740;90;23074;-78
2023/11/09 04:17:04;;;;;;;14.77;7.53;;;;;;;3.21;100.00;100654.11;1419748;91;21598;-78
2023/11/09 04:19:30;;;;;;;22.53;9.33;;;;;;;3.21;100.00;100654.11;1436229;89;21400;-78
2023/11/09 04:21:57;;;;;;;15.03;7.40;;;;;;;3.23;100.00;100670.08;1412939;91;21576;-79
2023/11/09 04:24:24;;;;;;;17.13;6.37;;;;;;;3.23;100.00;100670.08;1432271;91;21333;-79
2023/11/09 04:26:50;;;;;;;10.63;5.27;;;;;;;3.24;100.00;100678.77;1433200;90;22284;-79
2023/11/09 04:29:17;;;;;;;9.87;6.43;;;;;;;3.22;100.00;100684.55;1440387;90;22346;-78
2023/11/09 04:31:47;;;;;;;8.07;4.70;;;;;;;3.22;100.00;100684.55;1415658;91;21665;-78
2023/11/09 04:34:11;;;;;;;9.17;4.80;;;;;;;3.13;100.00;100676.80;1430219;90;22300;-77
2023/11/09 04:36:49;;;;;;;8.87;6.00;;;;;;;3.13;100.00;100676.80;1422493;90;22353;-78
2023/11/09 04:39:27;;;;;;;11.20;4.87;;;;;;;3.14;100.00;100681.95;1428001;91;21547;-80
2023/11/09 04:41:41;;;;;;;6.90;4.83;;;;;;;3.10;100.00;100681.74;1411280;91;22140;-79
2023/11/09 04:44:08;;;;;;;10.30;4.00;;;;;;;3.01;100.00;100673.16;1435574;90;21451;-79
2023/11/09 04:46:40;;;;;;;9.37;4.93;;;;;;;3.09;100.00;100676.63;1416865;91;21341;-79
2023/11/09 04:49:06;;;;;;;8.00;5.63;;;;;;;3.09;100.00;100676.63;1435892;91;21680;-79
2023/11/09 04:51:30;;;;;;;11.17;4.40;;;;;;;3.10;100.00;100675.20;1446530;91;22353;-82
2023/11/09 04:54:06;;;;;;;9.17;4.83;;;;;;;3.12;100.00;100677.74;1440499;90;22449;-82
2023/11/09 05:07:29;;;;;;;11.87;5.40;;;;;;;2.91;100.00;100675.97;1442882;91;21362;-81
2023/11/09 05:09:57;;;;;;;10.07;5.87;;;;;;;2.91;100.00;100689.05;1436377;91;21429;-80
2023/11/09 05:12:24;;;;;;;6.90;4.93;;;;;;;2.91;100.00;100689.05;1435314;90;21578;-79
2023/11/09 05:14:55;;;;;;;9.80;4.87;;;;;;;2.81;100.00;100681.36;1439585;91;21650;-81
2023/11/09 05:17:21;;;;;;;10.90;5.28;;;;;;;2.83;100.00;100684.73;1434182;91;21595;-81
2023/11/09 05:19:50;;;;;;;8.77;4.83;;;;;;;2.88;100.00;100691.84;1429898;91;21370;-81
2023/11/09 05:22:17;;;;;;;10.23;4.80;;;;;;;2.90;100.00;100692.09;1435044;91;23363;-80
2023/11/09 05:24:44;;;;;;;10.50;5.50;;;;;;;2.85;100.00;100694.61;1437707;90;21496;-80
2023/11/09 05:27:11;;;;;;;14.80;6.00;;;;;;;2.85;100.00;100694.61;1437944;91;21355;-82
2023/11/09 05:29:38;;;;;;;10.23;6.00;;;;;;;2.83;100.00;100696.50;1436255;90;23177;-82
2023/11/09 05:32:09;;;;;;;9.00;5.97;;;;;;;2.77;100.00;100698.17;1439758;91;21474;-82
2023/11/09 05:34:37;;;;;;;11.40;5.67;;;;;;;2.70;100.00;100692.00;1435387;90;22144;-81
2023/11/09 05:37:04;;;;;;;7.70;4.73;;;;;;;2.63;100.00;100699.81;1426995;90;22294;-81
2023/11/09 05:39:31;;;;;;;11.27;6.50;;;;;;;2.60;100.00;100701.30;1441215;91;22329;-80
2023/11/09 05:41:59;;;;;;;9.40;6.30;;;;;;;2.59;100.00;100707.47;1436187;90;22227;-81
2023/11/09 05:44:27;;;;;;;11.43;6.77;;;;;;;2.58;100.00;100708.39;1439864;91;22182;-81
2023/11/09 05:46:57;;;;;;;11.60;6.50;;;;;;;2.58;100.00;100716.22;1444223;90;22390;-80
2023/11/09 05:49:23;;;;;;;11.63;5.90;;;;;;;2.59;100.00;100719.23;1429600;91;22197;-80
2023/11/09 05:51:50;;;;;;;16.33;7.57;;;;;;;2.63;100.00;100721.20;1433384;91;22080;-81
2023/11/09 05:54:17;;;;;;;10.00;6.93;;;;;;;2.63;100.00;100719.41;1416272;91;22106;-81
2023/11/09 05:56:44;;;;;;;16.63;7.63;;;;;;;2.66;100.00;100723.16;1434745;90;22271;-81
2023/11/09 05:59:10;;;;;;;14.20;7.80;;;;;;;2.67;100.00;100723.52;1414674;91;23096;-81
2023/11/09 06:01:37;;;;;;;10.87;7.53;;;;;;;2.67;100.00;100726.61;1423396;91;22103;-81
2023/11/09 06:04:04;;;;;;;10.07;6.27;;;;;;;2.66;100.00;100728.38;1440216;90;22066;-80
2023/11/09 06:06:31;;;;;;;19.20;7.90;;;;;;;2.68;100.00;100734.37;1433153;91;23084;-80
2023/11/09 06:08:59;;;;;;;14.10;8.23;;;;;;;2.74;100.00;100736.25;1437779;91;21859;-80
2023/11/09 06:11:29;;;;;;;19.63;6.80;;;;;;;2.78;100.00;100735.13;1429630;90;23551;-78
2023/11/09 06:13:55;;;;;;;12.00;6.97;;;;;;;2.96;100.00;100746.27;1413301;91;22407;-80
2023/11/09 06:16:21;;;;;;;10.17;6.87;;;;;;;2.96;100.00;100743.97;1435244;90;22619;-80
2023/11/09 06:18:48;;;;;;;9.93;6.63;;;;;;;3.05;100.00;100743.97;1422571;91;22329;-79
2023/11/09 06:21:14;;;;;;;15.03;9.13;;;;;;;3.12;100.00;100751.80;1428943;90;21451;-80
2023/11/09 06:23:42;;;;;;;25.90;15.10;;;;;;;3.08;100.00;100745.09;1506131;89;22354;-80
2023/11/09 06:26:08;;;;;;;16.53;8.57;;;;;;;3.13;100.00;100757.41;1361690;91;22005;-80
2023/11/09 06:28:36;;;;;;;26.73;11.17;;;;;;;3.15;100.00;100760.77;1506510;91;21455;-80
2023/11/09 06:31:06;;;;;;;15.60;9.40;;;;;;;3.15;100.00;100760.77;1362438;91;21252;-80
2023/11/09 06:33:31;;;;;;;13.03;7.73;;;;;;;3.23;100.00;100760.80;1507317;91;22092;-79
2023/11/09 06:35:59;;;;;;;12.17;7.23;;;;;;;3.30;100.00;100751.63;1495437;91;21259;-80
2023/11/09 06:38:25;;;;;;;15.93;6.87;;;;;;;3.42;100.00;100754.80;1360845;90;21302;-79
2023/11/09 06:40:52;;;;;;;10.43;6.40;;;;;;;3.46;100.00;100761.55;1409567;91;21598;-78
2023/11/09 06:43:19;;;;;;;8.27;6.07;;;;;;;3.50;100.00;100759.10;1414661;91;21436;-78
2023/11/09 06:45:46;;;;;;;11.23;7.40;;;;;;;3.52;100.00;100761.17;1430200;91;21414;-80
2023/11/09 06:48:12;;;;;;;9.80;6.57;;;;;;;3.56;100.00;100770.97;1434826;90;21466;-79
2023/11/09 06:50:39;;;;;;;14.57;7.03;;;;;;;3.63;100.00;100771.45;1510685;91;21296;-77
2023/11/09 06:53:05;;;;;;;10.83;7.03;;;;;;;3.70;100.00;100779.29;1511469;90;21377;-78
2023/11/09 06:55:31;;;;;;;8.63;6.70;;;;;;;3.79;100.00;100780.86;1347236;92;21440;-77
2023/11/09 06:57:58;;;;;;;10.33;6.20;;;;;;;3.87;100.00;100776.94;1362198;91;21347;-78
2023/11/09 07:00:24;;;;;;;11.33;6.70;;;;;;;3.95;100.00;100779.45;1474937;91;21407;-78
2023/11/09 07:02:54;;;;;;;10.27;6.43;;;;;;;4.04;100.00;100778.02;1361789;90;22207;-79
2023/11/09 07:05:19;;;;;;;10.03;7.63;;;;;;;4.16;100.00;100782.48;1512537;91;22147;-80
2023/11/09 07:07:46;;;;;;;8.53;5.87;;;;;;;4.30;100.00;100782.91;1375816;90;21972;-78
2023/11/09 07:10:15;;;;;;;7.90;5.97;;;;;;;4.42;100.00;100782.59;1434213;90;21473;-81
2023/11/09 07:12:40;;;;;;;10.67;6.77;;;;;;;4.48;100.00;100779.56;1430942;91;21495;-82
2023/11/09 07:15:07;;;;;;;15.27;7.10;;;;;;;4.59;100.00;100787.57;1431392;91;22221;-81
2023/11/09 07:17:34;;;;;;;10.17;6.47;;;;;;;4.69;100.00;100793.03;1437895;91;21606;-82
2023/11/09 07:20:01;;;;;;;11.90;7.40;;;;;;;4.75;100.00;100796.13;1417906;91;22552;-82
2023/11/09 07:22:28;;;;;;;12.10;7.47;;;;;;;4.78;100.00;100791.62;1438869;90;21317;-82
2023/11/09 07:24:56;;;;;;;22.60;9.63;;;;;;;4.82;100.00;100796.55;1431856;91;21546;-83
2023/11/09 07:27:24;;;;;;;17.60;8.00;;;;;;;4.89;100.00;100800.45;1441275;91;21547;-80
2023/11/09 07:29:50;;;;;;;14.77;8.10;;;;;;;4.95;100.00;100794.80;1435667;90;22286;-81
2023/11/09 07:32:16;;;;;;;13.20;7.40;;;;;;;5.07;100.00;100795.76;1433942;90;21376;-83
2023/11/09 07:34:43;;;;;;;17.90;8.63;;;;;;;5.22;100.00;100795.19;1427097;91;21399;-81
2023/11/09 07:37:13;;;;;;;10.93;7.70;;;;;;;5.32;100.00;100794.08;1436277;90;22256;-80
2023/11/09 07:39:42;;;;;;;9.60;6.53;;;;;;;5.43;100.00;100788.93;1427189;90;21437;-84
2023/11/09 07:42:08;;;;;;;16.97;7.80;;;;;;;5.54;100.00;100790.83;1434419;90;21325;-84
2023/11/09 07:44:56;;;;;;;11.70;8.33;;;;;;;5.62;100.00;100785.89;1435265;91;21585;-82
2023/11/09 07:47:22;;;;;;;16.10;9.27;;;;;;;5.79;100.00;100788.17;1431078;91;21392;-89
2023/11/09 07:49:50;;;;;;;14.47;10.77;;;;;;;5.93;100.00;100795.12;1434601;91;22522;-85
2023/11/09 07:52:17;;;;;;;15.80;7.57;;;;;;;6.08;100.00;100782.67;1417371;91;21576;-86
2023/11/09 07:54:43;;;;;;;14.10;6.40;;;;;;;6.25;100.00;100787.55;1433291;90;21377;-85
2023/11/09 07:57:11;;;;;;;9.30;6.57;;;;;;;6.39;100.00;100783.92;1437851;90;21450;-87
2023/11/09 07:59:37;;;;;;;12.90;7.97;;;;;;;6.50;100.00;100787.92;1433279;90;22324;-86
2023/11/09 08:02:04;;;;;;;11.23;6.53;;;;;;;6.57;100.00;100786.98;1435528;91;21325;-85
2023/11/09 08:04:31;;;;;;;8.70;6.03;;;;;;;6.66;100.00;100792.87;1433880;91;21362;-84
2023/11/09 08:06:57;;;;;;;11.73;6.30;;;;;;;6.76;100.00;100788.63;1434833;90;21568;-87
2023/11/09 08:09:24;;;;;;;8.87;6.13;;;;;;;6.82;100.00;100790.41;1435226;91;21642;-88
2023/11/09 08:11:50;;;;;;;13.80;7.23;;;;;;;6.85;100.00;100783.61;1439775;90;21502;-83
2023/11/09 08:14:18;;;;;;;12.40;7.43;;;;;;;6.86;100.00;100778.72;1433049;90;21466;-87
2023/11/09 08:16:44;;;;;;;10.33;7.00;;;;;;;6.93;100.00;100772.90;1434407;90;22303;-87
2023/11/09 08:19:10;;;;;;;8.50;6.43;;;;;;;7.01;100.00;100776.24;1434747;90;21535;-87
2023/11/09 08:21:37;;;;;;;10.17;6.33;;;;;;;7.09;100.00;100775.19;1433642;91;21392;-82
2023/11/09 08:24:04;;;;;;;15.73;6.37;;;;;;;7.14;100.00;100783.58;1428917;91;21311;-87
2023/11/09 08:26:32;;;;;;;11.53;6.20;;;;;;;7.23;100.00;100777.61;1430190;91;21311;-86
2023/11/09 08:28:58;;;;;;;9.87;6.07;;;;;;;7.35;100.00;100781.58;1438844;91;21532;-85
2023/11/09 08:31:25;;;;;;;11.60;6.57;;;;;;;7.52;100.00;100789.50;1416873;91;21362;-87
2023/11/09 08:33:54;;;;;;;14.43;7.20;;;;;;;7.69;100.00;100789.02;1430730;91;21459;-86
2023/11/09 08:36:21;;;;;;;10.33;6.47;;;;;;;7.83;100.00;100786.14;1430211;91;21492;-87
2023/11/09 08:38:47;;;;;;;10.70;7.00;;;;;;;7.95;100.00;100790.91;1431312;91;21587;-85
2023/11/09 08:41:15;;;;;;;10.47;6.20;;;;;;;8.06;100.00;100796.66;1432633;91;21584;-87
2023/11/09 08:43:41;;;;;;;9.83;5.70;;;;;;;8.16;100.00;100803.34;1436529;90;21406;-83
2023/11/09 08:46:08;;;;;;;7.73;6.00;;;;;;;8.16;100.00;100803.34;1435575;91;21606;-87
2023/11/09 08:48:37;;;;;;;11.43;6.47;;;;;;;8.26;100.00;100797.70;1417838;91;21412;-87
2023/11/09 08:51:07;;;;;;;9.20;5.97;;;;;;;8.36;100.00;100810.48;1434888;90;21443;-85
2023/11/09 08:53:32;;;;;;;11.93;6.73;;;;;;;8.50;100.00;100816.83;1423942;91;21436;-86
2023/11/09 08:56:00;;;;;;;16.10;8.03;;;;;;;8.54;100.00;100814.28;1431791;91;22389;-86
2023/11/09 08:58:29;;;;;;;8.97;5.77;;;;;;;8.63;100.00;100814.50;1431675;91;22510;-84
2023/11/09 09:01:01;;;;;;;9.03;5.60;;;;;;;8.68;100.00;100817.13;1434171;91;22309;-88
2023/11/09 09:03:28;;;;;;;10.47;6.97;;;;;;;8.74;100.00;100810.50;1429772;91;22487;-87
2023/11/09 09:05:55;;;;;;;12.10;6.30;;;;;;;8.84;100.00;100816.71;1435284;91;21444;-86
2023/11/09 09:08:26;;;;;;;8.77;5.53;;;;;;;8.97;100.00;100819.16;1438879;91;21554;-86
2023/11/09 09:10:56;;;;;;;7.53;5.87;;;;;;;9.26;100.00;100816.26;1433942;90;21325;-84
2023/11/09 09:13:28;;;;;;;7.57;5.33;;;;;;;10.08;100.00;100819.81;1433143;90;21376;-88
2023/11/09 09:15:55;;;;;;;9.63;5.77;;;;;;;10.89;100.00;100814.38;1424319;90;21457;-86
2023/11/09 09:18:23;;;;;;;10.40;6.03;;;;;;;11.74;100.00;100805.05;1410828;91;21464;-85
2023/11/09 09:20:50;;;;;;;8.37;6.10;;;;;;;12.27;100.00;100801.39;1438322;90;22871;-85
2023/11/09 09:23:18;;;;;;;8.47;5.40;;;;;;;12.82;100.00;100799.92;1442432;91;21598;-88
2023/11/09 09:25:44;;;;;;;11.67;6.73;;;;;;;13.27;100.00;100801.63;1437635;91;21458;-86
2023/11/09 09:28:11;;;;;;;7.73;5.00;;;;;;;13.69;100.00;100800.36;1431339;91;21622;-87
2023/11/09 09:30:37;;;;;;;12.97;7.20;;;;;;;14.14;100.00;100807.71;1430543;91;22294;-87
2023/11/09 09:33:03;;;;;;;12.43;6.83;;;;;;;14.37;100.00;100804.77;1434570;89;21445;-87
2023/11/09 09:35:32;;;;;;;8.90;5.40;;;;;;;14.61;100.00;100804.51;1431446;90;21540;-84
2023/11/09 09:38:02;;;;;;;8.90;6.25;;;;;;;14.89;100.00;100795.20;1432240;91;21392;-87
2023/11/09 09:40:32;;;;;;;8.98;5.83;;;;;;;15.19;100.00;100803.54;1429634;90;21488;-87
2023/11/09 09:43:00;;;;;;;8.05;5.40;;;;;;;15.38;100.00;100800.16;1434406;91;21525;-85
2023/11/09 09:45:32;;;;;;;10.18;5.95;;;;;;;15.37;100.00;100793.17;1433835;91;21392;-87
2023/11/09 09:48:03;;;;;;;8.33;5.70;;;;;;;15.30;100.00;100797.83;1433157;90;22279;-85
2023/11/09 09:50:40;;;;;;;12.60;5.97;;;;;;;15.26;100.00;100801.02;1422585;91;21466;-87
2023/11/09 09:53:11;;;;;;;12.37;6.15;;;;;;;15.35;100.00;100790.16;1435216;91;22309;-86
2023/11/09 09:55:39;;;;;;;;;;;;;;;15.48;100.00;100786.15;1435422;90;21429;-86
2023/11/09 09:58:05;;;;;;;7.28;4.95;;;;;;;15.42;100.00;100789.47;1432690;91;20456;-88
2023/11/09 10:00:33;;;;;;;10.60;6.08;;;;;;;15.38;100.00;100787.66;1427855;91;21377;-86
2023/11/09 10:03:06;;;;;;;10.88;5.40;;;;;;;15.46;100.00;100793.48;1439592;90;22456;-89
2023/11/09 10:05:38;;;;;;;8.48;5.37;;;;;;;15.61;100.00;100794.43;1438638;91;22488;-87
2023/11/09 10:08:13;;;;;;;8.13;5.50;;;;;;;15.75;100.00;100795.08;1436102;91;22852;-87
2023/11/09 10:10:47;;;;;;;7.28;4.78;;;;;;;15.89;100.00;100791.38;1432593;91;21584;-84
2023/11/09 10:13:14;;;;;;;12.82;5.12;;;;;;;15.71;100.00;100787.11;1436842;91;21525;-85
2023/11/09 10:15:46;;;;;;;11.95;5.92;;;;;;;15.76;100.00;100790.06;1431161;91;21392;-82
2023/11/09 10:18:13;;;;;;;10.30;5.80;;;;;;;15.55;96.04;100787.11;1435896;91;21429;-86
2023/11/09 10:20:43;;;;;;;9.08;5.20;;;;;;;15.55;96.90;100792.45;1361415;90;21259;-86
2023/11/09 10:23:14;;;;;;;8.05;4.75;;;;;;;15.61;83.04;100790.42;1363956;91;21289;-81
2023/11/09 10:25:42;;;;;;;9.60;4.90;;;;;;;15.66;81.40;100782.75;1360494;90;21267;-85
2023/11/09 10:28:13;;;;;;;8.40;4.40;;;;;;;15.62;81.02;100780.08;1360621;90;21221;-85
2023/11/09 10:30:44;;;;;;;8.55;4.90;;;;;;;15.60;74.62;100774.61;1508759;91;21311;-84
2023/11/09 10:33:16;;;;;;;5.70;4.00;;;;;;;15.75;76.02;100780.41;1359925;90;21274;-85
2023/11/09 10:35:44;;;;;;;8.90;4.10;;;;;;;15.79;74.24;100787.08;1357981;90;21385;-84
2023/11/09 10:38:12;;;;;;;6.33;3.72;;;;;;;15.66;70.71;100780.59;1454361;91;21326;-85
2023/11/09 10:40:41;;;;;;;6.22;3.67;;;;;;;15.51;71.65;100772.47;1360414;90;22022;-81
2023/11/09 10:43:09;;;;;;;7.90;3.70;;;;;;;15.45;70.09;100771.80;1344582;92;22095;-83
2023/11/09 10:45:39;;;;;;;8.10;3.62;;;;;;;15.35;69.28;100770.16;1345778;92;21496;-84
2023/11/09 10:48:22;;;;;;;7.80;4.50;;;;;;;15.57;70.84;100766.45;1514526;90;22167;-83
2023/11/09 10:50:48;;;;;;;9.00;4.15;;;;;;;15.83;68.03;100757.38;1513152;91;21465;-83
2023/11/09 10:53:20;;;;;;;7.30;4.45;;;;;;;16.11;67.04;100753.70;1514511;91;21238;-84
2023/11/09 10:55:53;;;;;;;4.62;3.25;;;;;;;16.22;64.98;100757.31;1514422;90;22044;-85
2023/11/09 10:58:23;;;;;;;5.83;3.72;;;;;;;16.07;63.03;100755.90;1344300;93;21318;-82
2023/11/09 11:00:58;;;;;;;8.60;3.80;;;;;;;15.95;62.23;100747.97;1508760;91;22281;-90
2023/11/09 11:03:38;;;;;;;7.47;3.33;;;;;;;15.88;62.89;100750.98;1431055;90;21458;-86
2023/11/09 11:06:16;;;;;;;5.10;3.22;;;;;;;15.74;62.86;100746.73;1514381;90;21296;-85
2023/11/09 11:08:46;;;;;;;3.62;2.95;;;;;;;15.66;63.92;100744.06;1508666;90;21252;-83
2023/11/09 11:11:28;;;;;;;6.12;3.60;;;;;;;15.45;61.87;100745.13;1358365;92;21422;-84
2023/11/09 11:14:00;;;;;;;5.30;3.47;;;;;;;15.27;62.78;100742.67;1514440;90;21403;-87
2023/11/09 11:16:35;;;;;;;5.42;3.35;;;;;;;15.21;63.39;100734.86;1508604;90;21362;-87
2023/11/09 11:19:18;;;;;;;6.28;3.70;;;;;;;15.22;63.25;100736.55;1371839;90;21311;-87
2023/11/09 11:22:25;;;;;;;8.78;4.08;;;;;;;15.35;64.20;100738.16;1514244;91;21429;-84
2023/11/09 11:25:35;;;;;;;4.12;2.85;;;;;;;15.54;64.67;100734.78;1374025;91;21363;-85
2023/11/09 11:28:00;;;;;;;5.03;3.30;;;;;;;15.70;61.99;100740.06;1502254;91;21378;-84
2023/11/09 11:30:32;;;;;;;6.20;3.98;;;;;;;15.73;60.75;100734.38;1366558;91;21311;-83
2023/11/09 11:33:04;;;;;;;5.42;2.92;;;;;;;15.72;60.32;100734.05;1358256;92;21333;-86
2023/11/09 11:35:43;;;;;;;8.28;3.67;;;;;;;15.56;59.18;100731.41;1358831;90;21579;-83
2023/11/09 11:38:33;;;;;;;4.28;2.70;;;;;;;15.40;59.27;100734.16;1423162;91;21407;-86